createdAt,value
2018-03-27T00:00:06.963Z,17.17
2018-03-27T00:02:34.678Z,16.47
2018-03-27T00:05:02.483Z,15.43
2018-03-27T00:07:30.286Z,23.67
2018-03-27T00:09:58.019Z,21.67
2018-03-27T00:12:26.047Z,21.40
2018-03-27T00:14:53.860Z,15.37
2018-03-27T00:17:21.628Z,15.93
2018-03-27T00:19:49.342Z,11.60
2018-03-27T00:22:17.047Z,16.40
2018-03-27T00:24:44.786Z,14.87
2018-03-27T00:27:12.075Z,13.70
2018-03-27T00:29:51.646Z,12.10
2018-03-27T00:32:31.215Z,12.20
2018-03-27T00:35:10.649Z,13.70
2018-03-27T00:37:50.148Z,12.73
2018-03-27T00:40:29.537Z,15.70
2018-03-27T00:42:57.300Z,13.63
2018-03-27T00:45:25.060Z,13.87
2018-03-27T00:47:52.865Z,12.23
2018-03-27T00:50:20.587Z,14.67
2018-03-27T00:52:48.300Z,13.70
2018-03-27T00:55:16.012Z,15.00
2018-03-27T00:57:43.827Z,15.40
2018-03-27T01:00:11.662Z,19.33
2018-03-27T01:02:39.433Z,17.57
2018-03-27T01:05:09.962Z,14.17
2018-03-27T01:07:37.757Z,14.37
2018-03-27T01:10:05.513Z,15.23
2018-03-27T01:12:33.243Z,16.00
2018-03-27T01:15:00.997Z,12.03
2018-03-27T01:17:28.758Z,13.80
2018-03-27T01:19:57.297Z,13.33
2018-03-27T01:22:25.146Z,16.93
2018-03-27T01:24:52.927Z,14.30
2018-03-27T01:27:20.724Z,12.60
2018-03-27T01:29:49.210Z,15.00
2018-03-27T01:32:17.038Z,10.83
2018-03-27T01:34:44.798Z,11.13
2018-03-27T01:37:12.590Z,23.40
2018-03-27T01:39:40.365Z,10.83
2018-03-27T01:42:08.193Z,14.60
2018-03-27T01:44:35.967Z,11.17
2018-03-27T01:47:03.717Z,14.70
2018-03-27T01:49:31.531Z,11.13
2018-03-27T01:52:00.045Z,9.73
2018-03-27T01:54:27.747Z,11.60
2018-03-27T01:56:55.549Z,12.60
2018-03-27T01:59:23.271Z,12.27
2018-03-27T02:01:51.056Z,11.43
2018-03-27T02:04:18.802Z,19.80
2018-03-27T02:06:46.549Z,12.33
2018-03-27T02:09:14.303Z,13.30
2018-03-27T02:11:48.362Z,16.00
2018-03-27T02:14:21.633Z,14.30
2018-03-27T02:16:55.046Z,11.03
2018-03-27T02:19:28.404Z,12.80
2018-03-27T02:21:56.444Z,16.60
2018-03-27T02:24:26.920Z,14.13
2018-03-27T02:26:54.630Z,17.60
2018-03-27T02:29:22.548Z,13.33
2018-03-27T02:31:51.268Z,15.60
2018-03-27T02:34:18.985Z,15.40
2018-03-27T02:36:46.803Z,15.30
2018-03-27T02:39:14.604Z,12.47
2018-03-27T02:41:42.405Z,16.97
2018-03-27T02:44:10.214Z,15.90
2018-03-27T02:46:37.982Z,16.00
2018-03-27T02:49:05.765Z,17.90
2018-03-27T02:51:33.536Z,14.20
2018-03-27T02:54:01.387Z,16.30
2018-03-27T02:56:29.183Z,18.67
2018-03-27T02:58:57.036Z,17.90
2018-03-27T03:01:24.831Z,15.23
2018-03-27T03:03:52.635Z,17.43
2018-03-27T03:06:20.466Z,15.83
2018-03-27T03:08:48.235Z,15.63
2018-03-27T03:11:15.983Z,15.60
2018-03-27T03:13:43.680Z,16.33
2018-03-27T03:16:11.422Z,17.27
2018-03-27T03:18:39.126Z,16.40
2018-03-27T03:21:06.923Z,14.00
2018-03-27T03:23:34.686Z,15.87
2018-03-27T03:26:02.400Z,15.00
2018-03-27T03:28:30.207Z,14.77
2018-03-27T03:30:57.997Z,16.43
2018-03-27T03:33:25.858Z,15.63
2018-03-27T03:35:53.565Z,15.20
2018-03-27T03:38:21.348Z,12.93
2018-03-27T03:40:49.093Z,13.57
2018-03-27T03:43:16.873Z,19.50
2018-03-27T03:45:44.616Z,12.40
2018-03-27T03:48:12.385Z,15.03
2018-03-27T03:50:40.096Z,15.20
2018-03-27T03:53:07.931Z,11.70
2018-03-27T03:55:35.749Z,11.70
2018-03-27T03:58:03.456Z,13.07
2018-03-27T04:00:31.251Z,11.77
2018-03-27T04:02:58.999Z,13.50
2018-03-27T04:05:26.781Z,12.27
2018-03-27T04:07:54.567Z,12.63
2018-03-27T04:10:22.374Z,12.13
2018-03-27T04:12:50.236Z,11.27
2018-03-27T04:15:17.948Z,16.77
2018-03-27T04:17:45.738Z,12.93
2018-03-27T04:20:13.494Z,10.90
2018-03-27T04:22:41.276Z,11.50
2018-03-27T04:25:09.227Z,9.77
2018-03-27T04:27:36.986Z,10.47
2018-03-27T04:30:04.716Z,11.80
2018-03-27T04:32:32.473Z,12.57
2018-03-27T04:35:00.293Z,12.60
2018-03-27T04:37:28.069Z,12.63
2018-03-27T04:39:55.853Z,16.90
2018-03-27T04:42:23.602Z,16.37
2018-03-27T04:44:51.376Z,11.20
2018-03-27T04:47:19.093Z,11.90
2018-03-27T04:49:46.872Z,13.27
2018-03-27T04:52:14.623Z,11.93
2018-03-27T04:54:42.380Z,9.70
2018-03-27T04:57:10.291Z,11.77
2018-03-27T05:02:20.545Z,12.17
2018-03-27T05:04:48.331Z,11.03
2018-03-27T05:07:16.095Z,18.60
2018-03-27T05:09:43.851Z,10.20
2018-03-27T05:12:11.642Z,18.60
2018-03-27T05:14:39.430Z,14.83
2018-03-27T05:17:08.234Z,16.73
2018-03-27T05:19:36.023Z,18.53
2018-03-27T05:22:03.792Z,12.40
2018-03-27T05:24:31.514Z,11.73
2018-03-27T05:26:59.333Z,18.80
2018-03-27T05:29:27.117Z,20.20
2018-03-27T05:31:54.871Z,13.07
2018-03-27T05:34:22.671Z,14.80
2018-03-27T05:36:50.419Z,21.40
2018-03-27T05:39:18.196Z,24.70
2018-03-27T05:41:45.991Z,19.27
2018-03-27T05:44:13.798Z,16.70
2018-03-27T05:46:41.564Z,16.97
2018-03-27T05:49:09.302Z,15.00
2018-03-27T05:51:37.107Z,13.03
2018-03-27T05:54:04.814Z,16.53
2018-03-27T05:56:32.564Z,23.47
2018-03-27T05:59:00.330Z,18.90
2018-03-27T06:01:28.048Z,16.40
2018-03-27T06:03:55.805Z,18.00
2018-03-27T06:06:23.510Z,26.03
2018-03-27T06:08:52.044Z,16.50
2018-03-27T06:11:19.842Z,19.30
2018-03-27T06:13:47.645Z,16.20
2018-03-27T06:16:15.435Z,18.23
2018-03-27T06:18:43.200Z,21.70
2018-03-27T06:21:11.038Z,21.90
2018-03-27T06:23:39.560Z,20.20
2018-03-27T06:26:07.281Z,18.70
2018-03-27T06:28:35.011Z,27.57
2018-03-27T06:31:02.810Z,19.10
2018-03-27T06:33:30.532Z,15.97
2018-03-27T06:35:58.359Z,21.20
2018-03-27T06:38:26.172Z,23.77
2018-03-27T06:40:53.934Z,25.53
2018-03-27T06:43:21.712Z,25.80
2018-03-27T06:45:49.473Z,26.30
2018-03-27T06:48:17.244Z,25.23
2018-03-27T06:50:45.039Z,27.23
2018-03-27T06:53:12.887Z,30.33
2018-03-27T06:55:40.763Z,31.37
2018-03-27T06:58:08.573Z,29.00
2018-03-27T07:00:36.357Z,29.60
2018-03-27T07:03:04.062Z,28.50
2018-03-27T07:05:31.885Z,30.00
2018-03-27T07:07:59.690Z,34.90
2018-03-27T07:10:27.448Z,30.00
2018-03-27T07:12:55.181Z,33.10
2018-03-27T07:15:22.909Z,35.67
2018-03-27T07:17:50.693Z,32.60
2018-03-27T07:20:18.441Z,29.50
2018-03-27T07:22:46.291Z,27.23
2018-03-27T07:25:14.022Z,27.50
2018-03-27T07:27:41.858Z,26.17
2018-03-27T07:30:09.653Z,26.30
2018-03-27T07:32:37.370Z,30.03
2018-03-27T07:35:05.251Z,31.73
2018-03-27T07:37:33.003Z,25.20
2018-03-27T07:40:00.771Z,24.50
2018-03-27T07:42:28.473Z,24.77
2018-03-27T07:44:56.179Z,27.47
2018-03-27T07:47:23.990Z,23.57
2018-03-27T07:49:51.725Z,24.17
2018-03-27T07:52:19.458Z,24.90
2018-03-27T07:54:47.250Z,27.13
2018-03-27T07:57:14.984Z,28.67
2018-03-27T07:59:42.727Z,29.70
2018-03-27T08:02:11.214Z,26.77
2018-03-27T08:04:38.939Z,26.63
2018-03-27T08:07:06.726Z,25.60
2018-03-27T08:09:34.494Z,29.43
2018-03-27T08:12:02.288Z,25.13
2018-03-27T08:14:29.980Z,29.50
2018-03-27T08:16:57.696Z,29.07
2018-03-27T08:19:25.504Z,29.40
2018-03-27T08:21:53.322Z,33.30
2018-03-27T08:24:21.088Z,32.03
2018-03-27T08:26:48.820Z,32.37
2018-03-27T08:29:17.395Z,31.00
2018-03-27T08:31:45.163Z,33.60
2018-03-27T08:34:12.943Z,36.73
2018-03-27T08:36:40.705Z,33.13
2018-03-27T08:39:08.798Z,35.63
2018-03-27T08:41:36.593Z,37.47
2018-03-27T08:44:04.411Z,33.40
2018-03-27T08:46:32.199Z,37.27
2018-03-27T08:48:59.923Z,26.00
2018-03-27T08:51:27.733Z,26.77
2018-03-27T08:53:55.520Z,30.57
2018-03-27T08:56:23.306Z,28.60
2018-03-27T08:58:51.120Z,27.80
2018-03-27T09:01:18.901Z,32.70
2018-03-27T09:03:46.666Z,28.03
2018-03-27T09:06:14.750Z,31.90
2018-03-27T09:08:42.569Z,26.63
2018-03-27T09:11:10.358Z,22.03
2018-03-27T09:13:38.188Z,22.57
2018-03-27T09:16:05.908Z,21.80
2018-03-27T09:18:33.694Z,29.20
2018-03-27T09:21:01.476Z,25.03
2018-03-27T09:23:29.189Z,27.53
2018-03-27T09:25:56.979Z,24.30
2018-03-27T09:28:24.711Z,27.07
2018-03-27T09:30:52.508Z,27.77
2018-03-27T09:33:21.268Z,25.07
2018-03-27T09:35:49.001Z,23.90
2018-03-27T09:38:16.724Z,21.77
2018-03-27T09:40:44.528Z,22.13
2018-03-27T09:43:12.280Z,20.47
2018-03-27T09:45:40.001Z,19.80
2018-03-27T09:48:07.758Z,27.67
2018-03-27T09:50:35.529Z,20.93
2018-03-27T09:53:03.256Z,20.87
2018-03-27T09:55:31.040Z,21.63
2018-03-27T09:57:59.559Z,22.73
2018-03-27T10:00:33.665Z,20.07
2018-03-27T10:03:01.411Z,21.30
2018-03-27T10:05:29.892Z,21.53
2018-03-27T10:07:57.663Z,19.47
2018-03-27T10:10:25.405Z,19.33
2018-03-27T10:12:53.225Z,19.00
2018-03-27T10:15:21.046Z,17.40
2018-03-27T10:17:48.810Z,19.20
2018-03-27T10:20:16.603Z,19.50
2018-03-27T10:22:44.392Z,18.27
2018-03-27T10:25:12.148Z,21.03
2018-03-27T10:27:39.912Z,20.50
2018-03-27T10:30:07.769Z,20.60
2018-03-27T10:32:36.328Z,20.37
2018-03-27T10:35:04.125Z,17.80
2018-03-27T10:37:31.918Z,16.30
2018-03-27T10:39:59.682Z,18.30
2018-03-27T10:42:27.400Z,14.27
2018-03-27T10:44:55.216Z,19.13
2018-03-27T10:47:22.931Z,17.90
2018-03-27T10:49:50.717Z,19.67
2018-03-27T10:52:18.462Z,18.73
2018-03-27T10:54:46.241Z,17.47
2018-03-27T10:57:13.970Z,21.37
2018-03-27T10:59:41.792Z,22.13
2018-03-27T11:02:09.594Z,19.80
2018-03-27T11:04:37.446Z,16.80
2018-03-27T11:07:05.179Z,17.77
2018-03-27T11:09:33.770Z,18.90
2018-03-27T11:12:01.571Z,18.97
2018-03-27T11:14:29.329Z,18.33
2018-03-27T11:16:57.245Z,17.70
2018-03-27T11:19:25.064Z,20.03
2018-03-27T11:21:54.594Z,17.90
2018-03-27T11:24:22.310Z,19.80
2018-03-27T11:26:50.860Z,16.90
2018-03-27T11:29:19.448Z,18.17
2018-03-27T11:31:47.333Z,22.03
2018-03-27T11:34:15.094Z,22.33
2018-03-27T11:36:43.031Z,25.90
2018-03-27T11:39:10.857Z,21.50
2018-03-27T11:41:38.588Z,19.70
2018-03-27T11:44:06.441Z,20.80
2018-03-27T11:46:34.202Z,21.50
2018-03-27T11:49:01.994Z,20.93
2018-03-27T11:51:29.801Z,23.93
2018-03-27T11:53:57.755Z,22.70
2018-03-27T11:56:25.652Z,17.97
2018-03-27T11:58:53.486Z,22.87
2018-03-27T12:01:21.218Z,23.13
2018-03-27T12:03:49.133Z,20.43
2018-03-27T12:06:17.001Z,19.60
2018-03-27T12:08:45.599Z,17.17
2018-03-27T12:11:13.999Z,18.23
2018-03-27T12:13:42.105Z,24.23
2018-03-27T12:16:10.000Z,17.40
2018-03-27T12:18:37.798Z,16.13
2018-03-27T12:21:05.554Z,18.70
2018-03-27T12:23:33.334Z,22.67
2018-03-27T12:26:01.308Z,18.00
2018-03-27T12:28:30.090Z,17.87
2018-03-27T12:30:57.893Z,17.83
2018-03-27T12:33:25.801Z,17.00
2018-03-27T12:35:53.571Z,16.70
2018-03-27T12:38:21.337Z,21.33
2018-03-27T12:40:49.539Z,16.50
2018-03-27T12:43:17.380Z,18.87
2018-03-27T12:45:45.171Z,17.97
2018-03-27T12:48:13.138Z,18.07
2018-03-27T12:50:40.944Z,19.30
2018-03-27T12:53:08.777Z,21.70
2018-03-27T12:55:37.525Z,22.53
2018-03-27T12:58:05.376Z,19.47
2018-03-27T13:00:33.126Z,15.00
2018-03-27T13:03:01.012Z,18.10
2018-03-27T13:05:28.802Z,18.97
2018-03-27T13:07:56.562Z,20.77
2018-03-27T13:10:24.350Z,18.80
2018-03-27T13:12:52.103Z,23.03
2018-03-27T13:15:19.869Z,19.77
2018-03-27T13:17:47.753Z,15.80
2018-03-27T13:20:15.623Z,16.60
2018-03-27T13:22:43.727Z,17.53
2018-03-27T13:25:12.298Z,19.97
2018-03-27T13:27:40.008Z,19.93
2018-03-27T13:30:07.873Z,19.03
2018-03-27T13:32:35.671Z,28.20
2018-03-27T13:35:03.488Z,15.77
2018-03-27T13:37:31.290Z,24.30
2018-03-27T13:39:59.033Z,15.73
2018-03-27T13:42:26.840Z,17.80
2018-03-27T13:44:54.624Z,13.17
2018-03-27T13:47:22.469Z,19.07
2018-03-27T13:49:50.189Z,16.90
2018-03-27T13:52:17.943Z,15.30
2018-03-27T13:54:46.523Z,19.13
2018-03-27T13:57:14.333Z,15.87
2018-03-27T13:59:42.197Z,17.10
2018-03-27T14:02:09.982Z,17.20
2018-03-27T14:04:37.713Z,16.00
2018-03-27T14:07:05.536Z,19.23
2018-03-27T14:09:33.254Z,16.50
2018-03-27T14:12:01.060Z,17.40
2018-03-27T14:14:28.844Z,16.33
2018-03-27T14:16:56.638Z,16.70
2018-03-27T14:19:25.114Z,15.73
2018-03-27T14:21:53.678Z,15.63
2018-03-27T14:24:21.471Z,16.63
2018-03-27T14:26:49.962Z,19.07
2018-03-27T14:29:17.766Z,18.17
2018-03-27T14:31:45.485Z,14.90
2018-03-27T14:34:13.984Z,18.00
2018-03-27T14:36:41.775Z,18.67
2018-03-27T14:39:09.688Z,16.37
2018-03-27T14:41:38.194Z,17.60
2018-03-27T14:44:06.711Z,19.50
2018-03-27T14:46:34.500Z,15.83
2018-03-27T14:49:02.290Z,22.17
2018-03-27T14:51:30.118Z,16.93
2018-03-27T14:53:57.914Z,19.50
2018-03-27T14:56:25.640Z,20.47
2018-03-27T14:58:53.356Z,23.13
2018-03-27T15:01:21.979Z,16.93
2018-03-27T15:03:49.731Z,18.27
2018-03-27T15:06:17.522Z,18.47
2018-03-27T15:08:45.620Z,17.90
2018-03-27T15:11:13.417Z,16.50
2018-03-27T15:13:41.151Z,18.47
2018-03-27T15:16:08.902Z,17.70
2018-03-27T15:18:36.944Z,15.77
2018-03-27T15:21:04.786Z,22.20
2018-03-27T15:23:32.563Z,16.40
2018-03-27T15:26:00.385Z,20.20
2018-03-27T15:28:28.147Z,19.60
2018-03-27T15:30:55.912Z,17.90
2018-03-27T15:33:23.669Z,18.30
2018-03-27T15:35:51.403Z,20.83
2018-03-27T15:38:19.139Z,21.90
2018-03-27T15:40:46.970Z,20.30
2018-03-27T15:43:14.728Z,19.93
2018-03-27T15:45:42.483Z,18.10
2018-03-27T15:48:10.231Z,21.23
2018-03-27T15:50:37.989Z,17.77
2018-03-27T15:53:05.793Z,20.77
2018-03-27T15:55:33.639Z,24.10
2018-03-27T15:58:02.119Z,24.83
2018-03-27T16:00:29.834Z,18.33
2018-03-27T16:02:57.885Z,18.57
2018-03-27T16:05:26.879Z,17.50
2018-03-27T16:07:56.226Z,19.00
2018-03-27T16:10:26.416Z,21.47
2018-03-27T16:12:54.428Z,24.47
2018-03-27T16:15:24.137Z,21.10
2018-03-27T16:17:54.458Z,19.40
2018-03-27T16:20:22.466Z,21.07
2018-03-27T16:22:52.515Z,19.53
2018-03-27T16:25:22.890Z,20.73
2018-03-27T16:27:52.562Z,21.30
2018-03-27T16:30:22.264Z,23.03
2018-03-27T16:32:52.446Z,19.67
2018-03-27T16:35:21.506Z,21.03
2018-03-27T16:37:49.724Z,19.07
2018-03-27T16:40:17.547Z,23.23
2018-03-27T16:42:46.050Z,22.60
2018-03-27T16:45:15.444Z,22.73
2018-03-27T16:47:45.550Z,23.33
2018-03-27T16:50:14.067Z,21.50
2018-03-27T16:52:42.335Z,20.10
2018-03-27T16:55:11.273Z,25.20
2018-03-27T16:57:39.123Z,22.63
2018-03-27T17:00:07.259Z,26.00
2018-03-27T17:02:35.933Z,19.90
2018-03-27T17:05:04.542Z,22.33
2018-03-27T17:07:34.393Z,19.97
2018-03-27T17:10:03.889Z,21.80
2018-03-27T17:12:33.003Z,20.53
2018-03-27T17:15:00.779Z,21.77
2018-03-27T17:17:29.290Z,24.50
2018-03-27T17:19:57.141Z,19.50
2018-03-27T17:22:25.957Z,22.17
2018-03-27T17:24:53.783Z,24.53
2018-03-27T17:27:21.651Z,18.97
2018-03-27T17:29:49.679Z,19.73
2018-03-27T17:32:17.548Z,22.07
2018-03-27T17:34:45.594Z,23.73
2018-03-27T17:37:13.438Z,22.47
2018-03-27T17:39:41.920Z,19.03
2018-03-27T17:42:09.737Z,21.97
2018-03-27T17:44:37.906Z,23.73
2018-03-27T17:47:05.743Z,21.70
2018-03-27T17:49:34.342Z,21.30
2018-03-27T17:52:02.134Z,20.73
2018-03-27T17:54:29.888Z,20.90
2018-03-27T17:56:57.716Z,21.97
2018-03-27T17:59:25.518Z,25.10
2018-03-27T18:01:53.546Z,21.77
2018-03-27T18:04:21.354Z,21.93
2018-03-27T18:06:50.073Z,21.10
2018-03-27T18:09:18.168Z,21.60
2018-03-27T18:11:46.022Z,24.57
2018-03-27T18:14:13.789Z,21.73
2018-03-27T18:16:41.918Z,24.33
2018-03-27T18:19:10.006Z,28.27
2018-03-27T18:21:38.435Z,22.70
2018-03-27T18:24:06.719Z,25.63
2018-03-27T18:26:34.472Z,23.53
2018-03-27T18:29:02.372Z,33.40
2018-03-27T18:31:30.161Z,20.30
2018-03-27T18:33:57.927Z,22.23
2018-03-27T18:36:25.807Z,23.40
2018-03-27T18:38:53.596Z,21.10
2018-03-27T18:41:23.613Z,23.50
2018-03-27T18:43:51.420Z,27.33
2018-03-27T18:46:19.169Z,26.10
2018-03-27T18:48:47.001Z,27.70
2018-03-27T18:51:14.799Z,27.07
2018-03-27T18:53:42.512Z,28.50
2018-03-27T18:56:10.286Z,21.87
2018-03-27T18:58:38.722Z,24.40
2018-03-27T19:01:06.511Z,28.27
2018-03-27T19:03:35.167Z,26.33
2018-03-27T19:06:04.441Z,22.20
2018-03-27T19:08:32.189Z,23.20
2018-03-27T19:11:03.088Z,24.37
2018-03-27T19:13:31.041Z,24.70
2018-03-27T19:16:01.025Z,29.20
2018-03-27T19:18:29.146Z,29.43
2018-03-27T19:21:01.900Z,27.93
2018-03-27T19:23:29.651Z,29.70
2018-03-27T19:26:06.897Z,28.23
2018-03-27T19:28:42.515Z,25.63
2018-03-27T19:31:11.364Z,27.60
2018-03-27T19:33:43.646Z,28.93
2018-03-27T19:36:12.138Z,30.83
2018-03-27T19:38:40.809Z,29.50
2018-03-27T19:41:08.572Z,33.43
2018-03-27T19:43:37.342Z,34.43
2018-03-27T19:46:06.436Z,33.27
2018-03-27T19:48:39.123Z,37.10
2018-03-27T19:51:08.538Z,25.07
2018-03-27T19:53:37.924Z,28.87
2018-03-27T19:56:09.179Z,27.90
2018-03-27T19:58:39.143Z,32.50
2018-03-27T20:01:08.896Z,25.00
2018-03-27T20:03:46.871Z,23.37
2018-03-27T20:06:16.826Z,27.00
2018-03-27T20:08:47.780Z,30.93
2018-03-27T20:11:16.448Z,32.37
2018-03-27T20:13:49.948Z,29.83
2018-03-27T20:16:18.973Z,26.43
2018-03-27T20:18:49.800Z,28.80
2018-03-27T20:21:18.038Z,29.83
2018-03-27T20:23:49.815Z,28.10
2018-03-27T20:26:29.418Z,25.17
2018-03-27T20:28:57.364Z,27.13
2018-03-27T20:31:25.059Z,33.63
2018-03-27T20:33:53.769Z,24.37
2018-03-27T20:36:22.392Z,27.00
2018-03-27T20:38:52.234Z,26.80
2018-03-27T20:41:21.716Z,28.87
2018-03-27T20:43:49.445Z,30.70
2018-03-27T20:58:30.460Z,16.27
2018-03-27T21:00:58.246Z,20.17
2018-03-27T21:03:26.028Z,11.40
2018-03-27T21:05:54.547Z,7.47
2018-03-27T21:08:22.295Z,11.70
2018-03-27T21:10:51.250Z,11.10
2018-03-27T21:13:19.034Z,6.97
2018-03-27T21:15:48.978Z,7.33
2018-03-27T21:18:17.524Z,33.83
2018-03-27T21:20:45.271Z,30.47
2018-03-27T21:23:13.086Z,27.20
2018-03-27T21:25:42.711Z,31.60
2018-03-27T21:28:11.526Z,29.20
2018-03-27T21:30:41.691Z,17.33
2018-03-27T21:33:12.673Z,22.90
2018-03-27T21:35:43.075Z,23.30
2018-03-27T21:38:12.230Z,15.30
2018-03-27T21:40:42.561Z,8.83
2018-03-27T21:43:12.399Z,10.00
2018-03-27T21:45:40.948Z,9.77
2018-03-27T21:48:11.463Z,8.70
2018-03-27T21:50:40.875Z,9.70
2018-03-27T21:53:08.760Z,7.67
2018-03-27T21:55:36.588Z,7.60
2018-03-27T21:58:04.395Z,9.93
2018-03-27T22:00:32.202Z,8.33
2018-03-27T22:03:00.007Z,8.60
2018-03-27T22:05:27.742Z,9.90
2018-03-27T22:07:56.126Z,10.57
2018-03-27T22:10:24.654Z,9.63
2018-03-27T22:12:53.219Z,8.40
2018-03-27T22:15:20.929Z,12.40
2018-03-27T22:17:48.707Z,9.83
2018-03-27T22:20:17.443Z,7.90
2018-03-27T22:22:45.212Z,10.77
2018-03-27T22:25:13.009Z,9.43
2018-03-27T22:27:41.014Z,10.70
2018-03-27T22:30:09.490Z,9.40
2018-03-27T22:32:37.292Z,13.17
2018-03-27T22:35:05.029Z,11.30
2018-03-27T22:37:32.836Z,12.37
2018-03-27T22:40:00.575Z,11.00
2018-03-27T22:42:28.340Z,14.17
2018-03-27T22:44:56.043Z,10.83
2018-03-27T22:47:23.842Z,11.00
2018-03-27T22:49:51.664Z,9.80
2018-03-27T22:52:19.414Z,11.47
2018-03-27T22:54:47.212Z,9.07
2018-03-27T22:57:14.972Z,12.90
2018-03-27T22:59:42.780Z,11.10
2018-03-27T23:02:10.488Z,11.63
2018-03-27T23:04:38.200Z,12.50
2018-03-27T23:07:05.990Z,9.00
2018-03-27T23:09:33.726Z,11.13
2018-03-27T23:12:01.439Z,10.20
2018-03-27T23:14:29.203Z,8.80
2018-03-27T23:16:57.706Z,25.90
2018-03-27T23:19:25.968Z,29.57
2018-03-27T23:21:54.484Z,25.77
2018-03-27T23:24:22.291Z,25.97
2018-03-27T23:26:50.250Z,24.57
2018-03-27T23:29:18.169Z,26.13
2018-03-27T23:31:45.964Z,29.60
2018-03-27T23:34:13.762Z,30.23
2018-03-27T23:36:41.491Z,28.50
2018-03-27T23:39:09.245Z,24.93
2018-03-27T23:41:36.998Z,22.40
2018-03-27T23:44:04.712Z,22.30
2018-03-27T23:46:32.434Z,18.77
2018-03-27T23:49:00.234Z,18.47
2018-03-27T23:51:27.959Z,22.10
2018-03-27T23:53:55.735Z,19.07
2018-03-27T23:56:23.494Z,26.07
2018-03-27T23:58:51.278Z,20.17
